Time;durP1;ratioP1;P1;durP2;ratioP2;P2;SDS_P1;SDS_P2;PMS_P1;PMS_P2;Temp;Humidity;BMP_temperature;BMP_pressure;BME280_temperature;BME280_humidity;BME280_pressure;Samples;Min_cycle;Max_cycle;Signal;HPM_P1;HPM_P2
2023/03/23 00:01:20;;;;;;;3.28;0.90;;;17.20;71.40;;;;;;5093341;28;20059;-72
2023/03/23 00:03:49;;;;;;;2.30;0.90;;;17.10;62.50;;;;;;5093710;28;20012;-72
2023/03/23 00:06:17;;;;;;;1.58;0.77;;;17.10;62.40;;;;;;5093289;28;20463;-72
2023/03/23 00:08:45;;;;;;;2.40;0.90;;;17.20;62.50;;;;;;5093426;28;20020;-72
2023/03/23 00:11:18;;;;;;;1.73;0.88;;;17.20;62.50;;;;;;5093312;28;20496;-72
2023/03/23 00:13:45;;;;;;;3.25;1.20;;;17.20;62.60;;;;;;5093450;28;20024;-72
2023/03/23 00:16:18;;;;;;;2.28;1.02;;;17.10;62.40;;;;;;5093150;28;20020;-72
2023/03/23 00:18:48;;;;;;;1.33;0.80;;;17.20;62.50;;;;;;5093284;28;20055;-72
2023/03/23 00:21:13;;;;;;;1.38;0.80;;;17.20;62.50;;;;;;5093058;28;20067;-72
2023/03/23 00:23:40;;;;;;;3.20;0.90;;;17.20;62.50;;;;;;5092806;28;20055;-72
2023/03/23 00:26:06;;;;;;;2.75;0.70;;;17.10;62.50;;;;;;5093135;28;20070;-72
2023/03/23 00:28:32;;;;;;;4.18;1.15;;;17.10;62.40;;;;;;5092900;28;20058;-72
2023/03/23 00:31:05;;;;;;;1.77;1.00;;;17.10;62.50;;;;;;5093267;28;20443;-75
2023/03/23 00:33:40;;;;;;;1.25;0.70;;;17.20;62.40;;;;;;5092965;28;20027;-75
2023/03/23 00:36:08;;;;;;;2.03;0.82;;;17.20;62.50;;;;;;5092872;28;20081;-75
2023/03/23 00:38:34;;;;;;;2.80;0.80;;;17.10;62.30;;;;;;5092758;28;20405;-75
2023/03/23 00:41:02;;;;;;;2.42;1.13;;;17.20;62.40;;;;;;5092741;28;20028;-75
2023/03/23 00:43:28;;;;;;;1.58;0.70;;;17.10;62.40;;;;;;5092702;28;20081;-75
2023/03/23 00:45:54;;;;;;;1.17;1.00;;;17.20;62.50;;;;;;5093019;28;20028;-75
2023/03/23 00:48:22;;;;;;;1.83;0.77;;;17.10;62.40;;;;;;5092481;28;20047;-72
2023/03/23 00:50:48;;;;;;;2.65;0.90;;;17.20;62.40;;;;;;5108436;28;20581;-72
2023/03/23 00:53:15;;;;;;;1.10;0.63;;;17.20;62.40;;;;;;5092536;28;20052;-71
2023/03/23 00:55:42;;;;;;;2.67;0.90;;;17.20;62.40;;;;;;5092764;28;20386;-72
2023/03/23 00:58:09;;;;;;;2.50;0.90;;;17.10;62.30;;;;;;5092563;28;20059;-72
2023/03/23 01:00:35;;;;;;;1.50;0.75;;;17.10;62.30;;;;;;5092732;28;20043;-72
2023/03/23 01:03:01;;;;;;;1.75;0.90;;;17.20;62.40;;;;;;5092628;28;20077;-72
2023/03/23 01:05:31;;;;;;;1.67;0.70;;;17.20;62.40;;;;;;5092384;28;20475;-75
2023/03/23 01:07:58;;;;;;;1.40;0.80;;;17.20;62.30;;;;;;5092478;28;20024;-75
2023/03/23 01:10:26;;;;;;;3.53;0.90;;;17.20;63.10;;;;;;5092280;28;20489;-75
2023/03/23 01:12:52;;;;;;;2.10;1.08;;;17.20;62.40;;;;;;5092299;28;20039;-75
2023/03/23 01:15:19;;;;;;;2.47;0.70;;;17.20;62.40;;;;;;5092269;28;20119;-75
2023/03/23 01:17:45;;;;;;;0.98;0.88;;;17.20;62.30;;;;;;5092185;28;20156;-75
2023/03/23 01:20:15;;;;;;;1.38;0.75;;;17.20;62.30;;;;;;5092531;28;20510;-75
2023/03/23 01:22:42;;;;;;;3.63;0.93;;;17.20;62.20;;;;;;5092180;28;20024;-75
2023/03/23 01:25:09;;;;;;;1.60;0.70;;;17.20;62.20;;;;;;5092099;28;20055;-71
2023/03/23 01:27:35;;;;;;;2.13;0.70;;;17.20;62.20;;;;;;5092171;28;20016;-71
2023/03/23 01:30:01;;;;;;;1.98;0.77;;;17.20;62.90;;;;;;5092165;28;20490;-71
2023/03/23 01:32:26;;;;;;;1.58;0.65;;;17.20;62.30;;;;;;5092247;28;20035;-72
2023/03/23 01:34:52;;;;;;;0.40;0.40;;;17.20;62.20;;;;;;5092231;28;20028;-72
2023/03/23 01:37:19;;;;;;;1.17;0.60;;;17.20;62.20;;;;;;5092383;28;20414;-72
2023/03/23 01:39:45;;;;;;;0.70;0.40;;;17.20;62.30;;;;;;5092054;28;20034;-71
2023/03/23 01:42:11;;;;;;;1.40;0.52;;;17.20;62.30;;;;;;5092055;28;20080;-75
2023/03/23 01:44:37;;;;;;;1.42;0.70;;;17.20;62.20;;;;;;5091977;28;20115;-71
2023/03/23 01:47:03;;;;;;;2.30;0.77;;;17.20;62.40;;;;;;5092105;28;20099;-72
2023/03/23 01:49:36;;;;;;;1.10;0.70;;;17.20;62.20;;;;;;5092170;28;20439;-72
2023/03/23 01:52:11;;;;;;;2.00;0.85;;;17.20;62.20;;;;;;5091933;28;20016;-72
2023/03/23 01:54:39;;;;;;;1.05;0.85;;;17.20;62.20;;;;;;5091734;28;20052;-72
2023/03/23 01:57:29;;;;;;;1.48;0.70;;;17.20;62.20;;;;;;5092217;28;20070;-72
2023/03/23 01:59:59;;;;;;;1.90;0.80;;;17.20;62.20;;;;;;5092166;28;20438;-72
2023/03/23 02:02:26;;;;;;;1.00;0.60;;;17.20;62.20;;;;;;5095778;28;20024;-72
2023/03/23 02:04:59;;;;;;;2.63;0.73;;;17.20;62.20;;;;;;5095670;28;20032;-72
2023/03/23 02:07:25;;;;;;;1.42;0.65;;;17.20;62.20;;;;;;5095697;28;20031;-72
2023/03/23 02:09:51;;;;;;;0.80;0.57;;;17.20;62.20;;;;;;5095501;28;20024;-72
2023/03/23 02:12:17;;;;;;;1.38;0.85;;;17.20;62.80;;;;;;5095560;28;20032;-72
2023/03/23 02:14:43;;;;;;;1.58;0.60;;;17.20;62.20;;;;;;5095428;28;20032;-71
2023/03/23 02:17:08;;;;;;;3.70;0.95;;;17.20;62.20;;;;;;5095416;28;20024;-72
2023/03/23 02:19:43;;;;;;;1.85;0.70;;;17.20;62.20;;;;;;5095532;28;20058;-72
2023/03/23 02:22:35;;;;;;;0.90;0.38;;;17.20;62.20;;;;;;5095292;28;20028;-72
2023/03/23 02:25:03;;;;;;;0.82;0.40;;;17.20;62.10;;;;;;5095099;28;20047;-72
2023/03/23 02:27:41;;;;;;;0.85;0.60;;;17.20;62.10;;;;;;5095209;28;20039;-71
2023/03/23 02:30:23;;;;;;;3.35;0.63;;;17.20;62.00;;;;;;5110918;28;20368;-71
2023/03/23 02:33:22;;;;;;;1.13;0.60;;;17.20;62.10;;;;;;5095129;28;20032;-72
2023/03/23 02:35:58;;;;;;;2.35;0.75;;;17.20;62.10;;;;;;5095418;28;20036;-72
2023/03/23 02:38:43;;;;;;;0.88;0.50;;;17.20;62.00;;;;;;5095090;28;20024;-75
2023/03/23 02:41:11;;;;;;;1.45;0.55;;;17.20;62.10;;;;;;5095206;28;20028;-75
2023/03/23 02:43:43;;;;;;;1.40;0.60;;;17.20;62.00;;;;;;5095180;28;20020;-75
2023/03/23 02:46:10;;;;;;;0.75;0.52;;;17.20;62.10;;;;;;5095089;28;20019;-75
2023/03/23 02:48:39;;;;;;;1.05;0.63;;;17.20;62.10;;;;;;5095048;28;20020;-75
2023/03/23 02:51:07;;;;;;;1.45;0.70;;;17.20;62.10;;;;;;5095056;28;20328;-75
2023/03/23 02:53:37;;;;;;;2.20;0.60;;;17.20;62.10;;;;;;5094644;28;20629;-75
2023/03/23 02:56:06;;;;;;;1.80;0.60;;;17.20;62.10;;;;;;5094735;28;20137;-75
2023/03/23 02:58:33;;;;;;;1.00;0.70;;;17.20;62.10;;;;;;5094986;28;20020;-75
2023/03/23 03:01:00;;;;;;;1.73;0.70;;;17.20;62.80;;;;;;5094505;28;20505;-75
2023/03/23 03:03:29;;;;;;;1.58;0.70;;;17.20;62.00;;;;;;5094516;28;20103;-75
2023/03/23 03:06:30;;;;;;;0.93;0.50;;;17.20;62.00;;;;;;5094402;28;20028;-75
2023/03/23 03:09:41;;;;;;;0.80;0.40;;;17.20;62.00;;;;;;5081928;28;20530;-75
2023/03/23 03:12:18;;;;;;;2.08;0.70;;;17.20;62.00;;;;;;5094290;28;20024;-75
2023/03/23 03:15:07;;;;;;;2.60;0.80;;;17.20;62.00;;;;;;5094351;28;20153;-72
2023/03/23 03:17:39;;;;;;;2.22;0.65;;;17.20;62.00;;;;;;5094287;28;20020;-72
2023/03/23 03:20:10;;;;;;;1.63;0.70;;;17.20;62.00;;;;;;5094468;28;20024;-72
2023/03/23 03:22:41;;;;;;;1.42;0.55;;;17.20;62.00;;;;;;5094172;28;20453;-72
2023/03/23 03:25:09;;;;;;;0.82;0.47;;;17.20;62.00;;;;;;5093975;28;20048;-72
2023/03/23 03:27:35;;;;;;;1.75;0.77;;;17.20;62.00;;;;;;5094062;28;20035;-72
2023/03/23 03:30:06;;;;;;;2.17;0.60;;;17.20;62.00;;;;;;5093897;28;20028;-72
2023/03/23 03:32:39;;;;;;;2.30;0.80;;;17.20;62.00;;;;;;5093953;28;20051;-75
2023/03/23 03:35:05;;;;;;;2.17;0.47;;;17.20;62.00;;;;;;5094259;28;20084;-72
2023/03/23 03:37:39;;;;;;;1.63;0.70;;;17.20;62.00;;;;;;5093852;28;20020;-72
2023/03/23 03:40:11;;;;;;;2.22;0.70;;;17.20;62.00;;;;;;5094170;28;20028;-72
2023/03/23 03:42:42;;;;;;;2.17;0.93;;;17.20;62.00;;;;;;5094053;28;20031;-72
2023/03/23 03:45:11;;;;;;;0.90;0.50;;;17.20;62.00;;;;;;5093570;28;20020;-72
2023/03/23 03:47:37;;;;;;;3.13;0.73;;;17.20;62.00;;;;;;5093629;28;20024;-72
2023/03/23 03:50:04;;;;;;;2.38;0.65;;;17.20;61.90;;;;;;5093825;28;20024;-75
2023/03/23 03:52:30;;;;;;;1.95;0.60;;;17.20;61.90;;;;;;5093886;28;20105;-72
2023/03/23 03:54:56;;;;;;;0.95;0.60;;;17.20;62.00;;;;;;5093454;28;20090;-72
2023/03/23 03:57:22;;;;;;;1.17;0.60;;;17.20;61.90;;;;;;5093487;28;20028;-72
2023/03/23 03:59:48;;;;;;;1.83;0.90;;;17.20;61.90;;;;;;5093417;28;20470;-72
2023/03/23 04:02:16;;;;;;;2.45;0.77;;;17.20;61.90;;;;;;5093281;28;20020;-72
2023/03/23 04:04:43;;;;;;;1.55;0.73;;;17.20;61.90;;;;;;5093635;28;20472;-72
2023/03/23 04:07:10;;;;;;;2.38;0.60;;;17.20;61.90;;;;;;5093182;28;20024;-71
2023/03/23 04:09:37;;;;;;;3.60;0.70;;;17.20;61.80;;;;;;5093301;28;20062;-72
2023/03/23 04:12:03;;;;;;;2.50;0.55;;;17.20;61.90;;;;;;5093297;28;20024;-72
2023/03/23 04:14:28;;;;;;;4.25;1.05;;;17.20;61.80;;;;;;5093089;28;20093;-72
2023/03/23 04:16:56;;;;;;;1.80;0.68;;;17.20;61.80;;;;;;5108831;28;20020;-72
2023/03/23 04:19:23;;;;;;;1.92;0.75;;;17.20;61.80;;;;;;5093092;28;20020;-72
2023/03/23 04:21:49;;;;;;;3.25;0.85;;;17.20;61.80;;;;;;5093307;28;20036;-72
2023/03/23 04:24:15;;;;;;;2.92;0.90;;;17.20;61.80;;;;;;5092406;28;20097;-72
2023/03/23 04:26:41;;;;;;;3.30;1.08;;;17.20;61.80;;;;;;5092991;28;20020;-72
2023/03/23 04:29:08;;;;;;;4.03;0.90;;;17.20;61.80;;;;;;5093021;28;20483;-71
2023/03/23 04:31:35;;;;;;;2.60;0.98;;;17.20;61.80;;;;;;5092764;28;20016;-72
2023/03/23 04:34:02;;;;;;;1.50;0.60;;;17.20;61.80;;;;;;5092913;28;20108;-72
2023/03/23 04:36:29;;;;;;;2.85;0.73;;;17.20;61.80;;;;;;5093005;28;20020;-72
2023/03/23 04:38:55;;;;;;;2.60;1.23;;;17.20;61.80;;;;;;5092721;28;20173;-72
2023/03/23 04:41:22;;;;;;;2.20;0.80;;;17.20;61.80;;;;;;5092660;28;20056;-72
2023/03/23 04:43:53;;;;;;;3.95;1.05;;;17.20;61.70;;;;;;5092676;28;20086;-72
2023/03/23 04:46:21;;;;;;;3.83;1.25;;;17.20;61.70;;;;;;5092644;28;20039;-74
2023/03/23 04:48:47;;;;;;;1.88;0.60;;;17.20;61.70;;;;;;5092548;28;20024;-75
2023/03/23 04:51:13;;;;;;;1.95;0.73;;;17.20;61.70;;;;;;5092589;28;20019;-75
2023/03/23 04:53:40;;;;;;;2.00;0.77;;;17.20;61.80;;;;;;5092690;28;20417;-75
2023/03/23 04:56:07;;;;;;;3.00;1.00;;;17.10;61.80;;;;;;5092800;28;20028;-75
2023/03/23 04:58:33;;;;;;;2.45;0.90;;;17.20;61.90;;;;;;5092751;28;20085;-75
2023/03/23 05:01:00;;;;;;;2.15;0.80;;;17.20;61.80;;;;;;5092801;28;20443;-75
2023/03/23 05:03:26;;;;;;;3.83;1.67;;;17.20;61.80;;;;;;5092543;28;20043;-75
2023/03/23 05:05:53;;;;;;;5.70;1.23;;;17.20;61.80;;;;;;5092384;28;20020;-75
2023/03/23 05:08:20;;;;;;;3.40;0.70;;;17.20;62.40;;;;;;5092424;28;20016;-75
2023/03/23 05:10:55;;;;;;;2.25;0.80;;;17.20;61.70;;;;;;5092600;28;20027;-75
2023/03/23 05:13:22;;;;;;;2.92;1.08;;;17.20;62.00;;;;;;5092570;28;20039;-74
2023/03/23 05:15:48;;;;;;;2.42;0.93;;;17.20;61.80;;;;;;5092561;28;20115;-74
2023/03/23 05:18:15;;;;;;;4.32;0.98;;;17.20;61.80;;;;;;5092490;28;20017;-75
2023/03/23 05:20:41;;;;;;;2.92;0.95;;;17.20;61.80;;;;;;5092092;28;20486;-74
2023/03/23 05:23:09;;;;;;;2.17;0.65;;;17.20;61.80;;;;;;5092438;28;20053;-74
2023/03/23 05:25:39;;;;;;;3.05;0.98;;;17.20;61.90;;;;;;5092039;28;20048;-75
2023/03/23 05:28:06;;;;;;;;;;;17.20;62.50;;;;;;5092874;28;20091;-74
2023/03/23 05:30:32;;;;;;;3.33;0.80;;;17.20;61.90;;;;;;5092053;28;19904;-74
2023/03/23 05:32:57;;;;;;;5.50;1.10;;;17.20;61.90;;;;;;5092159;28;20043;-74
2023/03/23 05:35:23;;;;;;;2.92;1.00;;;17.20;62.00;;;;;;5092626;28;20059;-73
2023/03/23 05:37:48;;;;;;;4.10;1.10;;;17.20;61.90;;;;;;5096153;28;20081;-74
2023/03/23 05:40:14;;;;;;;4.47;1.42;;;17.20;61.90;;;;;;5096213;28;20446;-75
2023/03/23 05:42:41;;;;;;;4.90;2.17;;;17.20;62.10;;;;;;5096102;28;20028;-74
2023/03/23 05:45:10;;;;;;;2.97;1.80;;;17.20;62.80;;;;;;5096044;28;20035;-74
2023/03/23 05:47:40;;;;;;;4.35;2.50;;;17.20;62.20;;;;;;5096367;28;20024;-75
2023/03/23 05:50:08;;;;;;;5.18;3.15;;;17.20;62.30;;;;;;5096218;28;20020;-75
2023/03/23 05:52:36;;;;;;;5.47;3.20;;;17.20;62.30;;;;;;5095871;28;20020;-74
2023/03/23 05:55:03;;;;;;;4.70;3.75;;;17.20;62.30;;;;;;5096102;28;20044;-74
2023/03/23 05:57:30;;;;;;;6.78;5.00;;;17.20;62.30;;;;;;5096084;28;20012;-75
2023/03/23 05:59:57;;;;;;;5.75;5.15;;;17.20;62.40;;;;;;5096023;28;20390;-71
2023/03/23 06:02:24;;;;;;;7.80;6.90;;;17.20;62.50;;;;;;5095922;28;20091;-71
2023/03/23 06:04:57;;;;;;;7.57;6.90;;;17.20;63.30;;;;;;5095892;28;20069;-71
2023/03/23 06:07:25;;;;;;;7.93;7.10;;;17.20;62.70;;;;;;5095853;28;20031;-71
2023/03/23 06:09:53;;;;;;;7.85;7.07;;;17.20;63.20;;;;;;5095824;28;20379;-72
2023/03/23 06:12:20;;;;;;;8.73;7.80;;;17.20;62.60;;;;;;5095771;28;20016;-72
2023/03/23 06:14:47;;;;;;;8.43;7.72;;;17.20;63.40;;;;;;5095396;28;20063;-72
2023/03/23 06:17:16;;;;;;;9.18;8.27;;;17.20;63.50;;;;;;5095411;28;20538;-72
2023/03/23 06:19:42;;;;;;;8.88;8.07;;;17.20;62.80;;;;;;5095325;28;20505;-72
2023/03/23 06:22:08;;;;;;;10.05;8.70;;;17.20;62.70;;;;;;5095667;28;20020;-72
2023/03/23 06:24:34;;;;;;;10.98;9.63;;;17.20;62.80;;;;;;5095029;28;20048;-72
2023/03/23 06:27:00;;;;;;;9.20;8.40;;;17.30;62.70;;;;;;5095225;28;20028;-73
2023/03/23 06:29:25;;;;;;;8.30;7.53;;;17.20;62.70;;;;;;5095204;28;20043;-73
2023/03/23 06:31:57;;;;;;;8.48;7.72;;;17.30;62.70;;;;;;5110873;28;20119;-73
2023/03/23 06:34:23;;;;;;;8.40;6.53;;;17.30;62.50;;;;;;5094980;28;20147;-72
2023/03/23 06:36:49;;;;;;;6.88;6.18;;;17.30;62.60;;;;;;5095038;28;20530;-77
2023/03/23 06:39:15;;;;;;;7.45;6.00;;;17.30;62.40;;;;;;5095127;28;20028;-78
2023/03/23 06:41:41;;;;;;;6.75;5.38;;;17.30;62.60;;;;;;5095249;28;20027;-77
2023/03/23 06:44:08;;;;;;;5.82;5.32;;;17.30;62.50;;;;;;5095138;28;20032;-76
2023/03/23 06:46:34;;;;;;;5.78;5.22;;;17.30;62.40;;;;;;5094673;28;20027;-76
2023/03/23 06:49:00;;;;;;;5.43;4.55;;;17.30;62.40;;;;;;5095004;28;20115;-76
2023/03/23 06:51:26;;;;;;;7.45;4.60;;;17.30;62.40;;;;;;5095066;28;20387;-76
2023/03/23 06:53:52;;;;;;;4.75;3.88;;;17.30;62.40;;;;;;5094938;28;20515;-77
2023/03/23 06:56:18;;;;;;;5.30;4.10;;;17.30;62.30;;;;;;5095021;28;20072;-72
2023/03/23 06:58:45;;;;;;;5.82;3.60;;;17.30;62.40;;;;;;5094992;28;20027;-72
2023/03/23 07:01:12;;;;;;;5.53;3.35;;;17.10;71.20;;;;;;5094736;28;20077;-72
2023/03/23 07:03:40;;;;;;;4.05;2.80;;;17.30;62.50;;;;;;5094716;28;20423;-72
2023/03/23 07:06:07;;;;;;;4.88;3.15;;;17.30;62.40;;;;;;5094775;28;20059;-73
2023/03/23 07:08:34;;;;;;;4.20;2.38;;;17.30;62.40;;;;;;5094797;28;20386;-73
2023/03/23 07:11:00;;;;;;;4.13;2.38;;;17.30;62.50;;;;;;5094437;28;20024;-73
2023/03/23 07:13:26;;;;;;;4.57;2.53;;;17.30;62.40;;;;;;5094358;28;20035;-76
2023/03/23 07:15:53;;;;;;;6.28;2.10;;;17.30;62.40;;;;;;5094681;28;20085;-73
2023/03/23 07:18:19;;;;;;;3.33;1.50;;;17.30;62.30;;;;;;5094144;28;20031;-73
2023/03/23 07:20:53;;;;;;;5.32;2.17;;;17.30;62.30;;;;;;5094263;28;20479;-74
2023/03/23 07:23:19;;;;;;;3.88;1.88;;;17.30;62.20;;;;;;5094139;28;20054;-74
2023/03/23 07:25:48;;;;;;;3.63;1.60;;;17.30;62.20;;;;;;5093929;28;20051;-74
2023/03/23 07:28:15;;;;;;;4.13;1.70;;;17.30;62.20;;;;;;5094272;28;20032;-74
2023/03/23 07:30:42;;;;;;;5.82;1.63;;;17.30;62.20;;;;;;5094071;28;20486;-73
2023/03/23 07:33:09;;;;;;;5.93;2.00;;;17.30;62.90;;;;;;5094206;28;20024;-75
2023/03/23 07:35:35;;;;;;;4.18;1.65;;;17.30;62.20;;;;;;5094173;28;20093;-76
2023/03/23 07:38:03;;;;;;;1.90;1.30;;;17.30;62.10;;;;;;5094060;28;20032;-76
2023/03/23 07:40:33;;;;;;;4.22;1.48;;;17.30;62.10;;;;;;5093762;28;20056;-75
2023/03/23 07:43:00;;;;;;;2.65;0.90;;;17.30;62.00;;;;;;5093814;28;20043;-77
2023/03/23 07:45:26;;;;;;;2.50;1.20;;;17.40;62.10;;;;;;5093943;28;20031;-76
2023/03/23 07:47:53;;;;;;;5.07;1.20;;;17.30;62.00;;;;;;5093652;28;20119;-81
2023/03/23 07:50:22;;;;;;;2.92;1.02;;;17.30;62.00;;;;;;5093038;28;20108;-81
2023/03/23 07:52:48;;;;;;;6.10;1.13;;;17.30;62.00;;;;;;5093004;28;20489;-82
2023/03/23 07:55:17;;;;;;;3.58;1.30;;;17.30;62.00;;;;;;5109089;28;20057;-82
2023/03/23 07:57:44;;;;;;;4.57;1.57;;;17.40;62.10;;;;;;5093282;28;20070;-82
2023/03/23 08:00:19;;;;;;;4.10;1.50;;;17.30;62.00;;;;;;5093157;28;20028;-81
2023/03/23 08:02:48;;;;;;;3.42;1.23;;;17.30;62.00;;;;;;5093393;28;20382;-81
2023/03/23 08:05:14;;;;;;;3.83;1.13;;;17.30;62.00;;;;;;5093333;28;20020;-82
2023/03/23 08:07:41;;;;;;;3.33;1.10;;;17.30;62.00;;;;;;5093304;28;20053;-81
2023/03/23 08:10:11;;;;;;;4.55;1.50;;;17.30;62.10;;;;;;5093174;28;20027;-81
2023/03/23 08:12:38;;;;;;;3.47;1.02;;;17.30;62.00;;;;;;5093224;28;20395;-81
2023/03/23 08:15:06;;;;;;;3.88;1.40;;;17.30;62.10;;;;;;5093046;28;20047;-81
2023/03/23 08:17:32;;;;;;;3.05;0.95;;;17.30;62.10;;;;;;5093435;28;20419;-82
2023/03/23 08:19:58;;;;;;;1.38;0.82;;;17.30;62.10;;;;;;5093035;28;20108;-82
2023/03/23 08:22:24;;;;;;;2.58;0.80;;;17.30;62.10;;;;;;5093106;28;20052;-82
2023/03/23 08:24:50;;;;;;;2.88;0.82;;;17.30;62.10;;;;;;5092938;28;20458;-81
2023/03/23 08:27:16;;;;;;;3.03;0.88;;;17.30;62.10;;;;;;5093241;28;20095;-82
2023/03/23 08:29:44;;;;;;;2.90;1.15;;;17.20;62.00;;;;;;5093229;28;20039;-82
2023/03/23 08:32:10;;;;;;;2.95;0.80;;;17.30;62.80;;;;;;5092890;28;20016;-82
2023/03/23 08:34:36;;;;;;;5.70;1.38;;;17.20;62.70;;;;;;5092782;28;20055;-82
2023/03/23 08:37:02;;;;;;;2.95;1.05;;;17.30;62.00;;;;;;5092761;28;20391;-82
2023/03/23 08:39:30;;;;;;;3.08;1.55;;;17.30;62.00;;;;;;5093103;28;20048;-82
2023/03/23 08:41:56;;;;;;;2.15;0.80;;;17.30;62.00;;;;;;5093189;28;20020;-82
2023/03/23 08:44:23;;;;;;;6.75;1.10;;;17.30;62.10;;;;;;5092534;28;20107;-82
2023/03/23 08:46:49;;;;;;;4.55;1.45;;;17.30;62.20;;;;;;5092547;28;20471;-82
2023/03/23 08:49:15;;;;;;;4.18;1.05;;;17.30;62.30;;;;;;5092865;28;20031;-82
2023/03/23 08:51:41;;;;;;;3.65;1.33;;;17.30;62.40;;;;;;5092821;28;20065;-82
2023/03/23 08:54:08;;;;;;;2.00;1.23;;;17.30;62.40;;;;;;5092327;28;20031;-82
2023/03/23 08:56:34;;;;;;;3.70;1.00;;;17.40;62.60;;;;;;5092468;28;20107;-82
2023/03/23 08:59:00;;;;;;;3.28;1.20;;;17.30;62.60;;;;;;5092812;28;20155;-82
2023/03/23 09:01:26;;;;;;;4.25;1.25;;;17.40;62.60;;;;;;5092294;28;20020;-82
2023/03/23 09:03:53;;;;;;;3.85;1.15;;;17.40;62.60;;;;;;5092604;28;20027;-82
2023/03/23 09:06:20;;;;;;;2.67;0.85;;;17.40;62.70;;;;;;5092826;28;20073;-82
2023/03/23 09:08:46;;;;;;;3.35;1.10;;;17.40;62.60;;;;;;5092563;28;20020;-82
2023/03/23 09:11:12;;;;;;;1.38;0.82;;;17.50;62.70;;;;;;5092116;28;20119;-81
2023/03/23 09:13:39;;;;;;;2.90;0.80;;;17.40;62.60;;;;;;5092392;28;20020;-82
2023/03/23 09:16:06;;;;;;;3.25;1.00;;;17.50;62.60;;;;;;5092255;28;20033;-82
2023/03/23 09:18:33;;;;;;;2.85;1.02;;;17.60;62.60;;;;;;5092243;28;20478;-84
2023/03/23 09:20:59;;;;;;;2.53;0.93;;;17.50;62.50;;;;;;5092238;28;20024;-85
2023/03/23 09:23:26;;;;;;;4.47;1.05;;;17.60;62.70;;;;;;5092088;28;20016;-84
2023/03/23 09:25:52;;;;;;;4.50;1.00;;;17.60;62.60;;;;;;5092135;28;20052;-84
2023/03/23 09:28:19;;;;;;;2.35;0.77;;;17.60;62.50;;;;;;5092190;28;20505;-84
2023/03/23 09:30:47;;;;;;;2.55;0.90;;;17.60;62.50;;;;;;5092100;28;20024;-84
2023/03/23 09:33:14;;;;;;;2.92;1.00;;;17.70;62.50;;;;;;5092124;28;20024;-83
2023/03/23 09:35:42;;;;;;;3.80;0.98;;;17.70;62.50;;;;;;5092302;28;20025;-84
2023/03/23 09:38:12;;;;;;;3.85;1.08;;;17.70;62.40;;;;;;5092489;28;20091;-83
2023/03/23 09:40:50;;;;;;;4.45;1.25;;;17.80;62.50;;;;;;5092293;28;20024;-83
2023/03/23 09:43:36;;;;;;;3.67;1.42;;;17.70;62.30;;;;;;5091915;28;20475;-84
2023/03/23 09:46:15;;;;;;;5.65;1.60;;;17.80;62.30;;;;;;5092383;28;20020;-84
2023/03/23 09:49:01;;;;;;;4.35;1.25;;;17.80;62.20;;;;;;5092332;28;20054;-85
2023/03/23 09:51:49;;;;;;;4.80;1.27;;;17.90;62.00;;;;;;5092341;28;20028;-85
2023/03/23 09:54:26;;;;;;;3.55;1.10;;;18.00;61.90;;;;;;5092368;28;20474;-85
2023/03/23 09:56:54;;;;;;;5.28;1.38;;;18.00;61.90;;;;;;5092229;28;20023;-84
2023/03/23 09:59:33;;;;;;;4.13;1.17;;;18.10;61.70;;;;;;5091803;28;20028;-85
2023/03/23 10:02:10;;;;;;;3.90;1.38;;;18.10;61.60;;;;;;5091808;28;20505;-83
2023/03/23 10:04:43;;;;;;;4.32;1.08;;;18.10;61.80;;;;;;5092056;28;20065;-83
2023/03/23 10:07:23;;;;;;;6.15;1.50;;;18.10;61.80;;;;;;5092157;28;20020;-83
2023/03/23 10:09:53;;;;;;;4.63;1.20;;;18.10;61.60;;;;;;5092007;28;20028;-83
2023/03/23 10:12:48;;;;;;;6.18;1.77;;;18.10;61.70;;;;;;5092028;28;20028;-83
2023/03/23 10:15:21;;;;;;;3.25;1.00;;;18.10;61.80;;;;;;5089444;28;20123;-82
2023/03/23 10:17:50;;;;;;;4.20;1.20;;;18.20;61.80;;;;;;5091857;28;20482;-82
2023/03/23 10:20:21;;;;;;;3.92;1.52;;;18.10;61.60;;;;;;5091624;28;20027;-82
2023/03/23 10:23:21;;;;;;;5.78;1.60;;;18.20;61.70;;;;;;5094367;28;20038;-82
2023/03/23 10:26:20;;;;;;;5.60;1.38;;;18.20;61.60;;;;;;5090066;28;20071;-82
2023/03/23 10:28:56;;;;;;;4.85;1.40;;;18.20;61.50;;;;;;5095242;28;20024;-83
2023/03/23 10:31:59;;;;;;;5.47;1.40;;;18.20;61.50;;;;;;5095719;28;20032;-83
2023/03/23 10:34:41;;;;;;;6.03;1.17;;;18.20;61.60;;;;;;5094737;28;20131;-83
2023/03/23 10:37:18;;;;;;;4.88;1.52;;;18.20;61.50;;;;;;5095130;28;20482;-82
2023/03/23 10:39:58;;;;;;;6.18;1.48;;;18.20;61.60;;;;;;5095361;28;20039;-83
2023/03/23 10:42:27;;;;;;;7.07;1.58;;;18.20;61.60;;;;;;5095241;28;20023;-82
2023/03/23 10:44:56;;;;;;;3.53;1.02;;;18.20;61.60;;;;;;5094848;28;20471;-82
2023/03/23 10:47:23;;;;;;;6.32;1.65;;;18.20;61.50;;;;;;5095080;28;20020;-82
2023/03/23 10:50:02;;;;;;;5.32;1.70;;;18.30;61.40;;;;;;5095123;28;20034;-82
2023/03/23 10:52:35;;;;;;;5.82;1.80;;;18.40;61.30;;;;;;5094727;28;20031;-82
2023/03/23 10:55:08;;;;;;;4.60;1.40;;;18.40;61.10;;;;;;5094961;28;20028;-82
2023/03/23 10:57:40;;;;;;;3.28;1.25;;;18.40;61.00;;;;;;5094994;28;20024;-82
2023/03/23 11:00:13;;;;;;;4.45;1.48;;;18.40;61.00;;;;;;5094839;28;20024;-82
2023/03/23 11:02:43;;;;;;;3.58;1.38;;;18.30;61.10;;;;;;5094427;28;20048;-82
2023/03/23 11:05:20;;;;;;;5.97;1.50;;;18.30;61.10;;;;;;5094595;28;20084;-82
2023/03/23 11:07:59;;;;;;;4.07;1.20;;;18.30;61.10;;;;;;5094884;28;20375;-82
2023/03/23 11:10:36;;;;;;;5.03;1.90;;;18.30;61.30;;;;;;5094843;28;20024;-82
2023/03/23 11:13:04;;;;;;;4.50;1.35;;;18.30;61.40;;;;;;5094298;28;20095;-82
2023/03/23 11:15:34;;;;;;;3.53;1.45;;;18.30;61.40;;;;;;5094528;28;20111;-82
2023/03/23 11:18:03;;;;;;;6.03;1.80;;;18.30;61.40;;;;;;5094457;28;20022;-82
2023/03/23 11:20:35;;;;;;;5.50;1.70;;;18.30;61.40;;;;;;5094294;28;20028;-82
2023/03/23 11:23:17;;;;;;;4.97;1.70;;;18.20;61.50;;;;;;5094110;28;20012;-82
2023/03/23 11:25:57;;;;;;;4.60;1.45;;;18.30;61.50;;;;;;5094079;28;20056;-82
2023/03/23 11:28:37;;;;;;;3.42;1.42;;;18.40;61.20;;;;;;5094087;28;20107;-82
2023/03/23 11:31:06;;;;;;;5.18;1.73;;;18.40;60.90;;;;;;5094345;28;20027;-82
2023/03/23 11:34:01;;;;;;;6.00;1.40;;;18.60;60.50;;;;;;5094255;28;20034;-82
2023/03/23 11:36:40;;;;;;;4.47;1.45;;;18.60;60.50;;;;;;5093808;28;20028;-82
2023/03/23 11:39:28;;;;;;;4.40;1.20;;;18.60;60.40;;;;;;5093864;28;20027;-83
2023/03/23 11:41:57;;;;;;;5.20;1.38;;;18.60;61.00;;;;;;5094070;28;20274;-82
2023/03/23 11:44:31;;;;;;;4.10;1.38;;;18.70;60.10;;;;;;5094178;28;20408;-82
2023/03/23 11:47:23;;;;;;;4.63;1.63;;;18.80;59.80;;;;;;5094010;28;20383;-73
2023/03/23 11:50:08;;;;;;;5.97;1.48;;;19.00;59.50;;;;;;5093976;28;20425;-73
2023/03/23 11:53:01;;;;;;;4.80;1.20;;;19.10;59.20;;;;;;5093986;28;20454;-73
2023/03/23 11:55:51;;;;;;;6.40;1.55;;;19.10;59.00;;;;;;5093455;28;20506;-73
2023/03/23 11:58:18;;;;;;;;;;;19.20;59.00;;;;;;5094165;28;20028;-73
2023/03/23 12:01:04;;;;;;;4.15;1.10;;;19.30;58.80;;;;;;5093425;28;19911;-73
2023/03/23 12:03:49;;;;;;;5.72;1.30;;;19.50;58.60;;;;;;5093739;28;20024;-73
2023/03/23 12:06:50;;;;;;;4.40;1.08;;;19.50;58.50;;;;;;5093538;28;20024;-83
2023/03/23 12:09:29;;;;;;;4.93;1.20;;;19.50;58.30;;;;;;5093206;28;20102;-83
2023/03/23 12:12:18;;;;;;;4.17;1.33;;;19.70;58.10;;;;;;5093850;28;20058;-83
2023/03/23 12:15:12;;;;;;;3.88;1.45;;;19.70;57.80;;;;;;5093437;28;20028;-83
2023/03/23 12:17:39;;;;;;;4.97;1.42;;;19.90;57.60;;;;;;5093315;28;20039;-83
2023/03/23 12:20:25;;;;;;;4.07;1.40;;;20.00;57.50;;;;;;5093308;28;20101;-83
2023/03/23 12:23:05;;;;;;;1.88;1.15;;;20.00;57.40;;;;;;5093309;28;20521;-83
2023/03/23 12:25:39;;;;;;;;;;;20.00;57.20;;;;;;5109061;28;20055;-83
2023/03/23 12:28:32;;;;;;;3.22;1.10;;;20.10;57.30;;;;;;5093046;28;19962;-83
2023/03/23 12:31:04;;;;;;;3.55;1.45;;;20.10;57.10;;;;;;5093128;28;20020;-82
2023/03/23 12:33:38;;;;;;;3.13;1.10;;;20.10;57.20;;;;;;5092768;28;20338;-78
2023/03/23 12:36:24;;;;;;;3.63;1.10;;;20.10;57.40;;;;;;5092993;28;20039;-81
2023/03/23 12:39:14;;;;;;;4.32;1.63;;;20.00;57.50;;;;;;5092980;28;20032;-84
2023/03/23 12:41:53;;;;;;;4.65;1.50;;;20.00;57.80;;;;;;5092809;28;20061;-73
2023/03/23 12:44:33;;;;;;;4.65;1.38;;;20.00;57.90;;;;;;5092058;28;20083;-73
2023/03/23 12:47:16;;;;;;;3.95;1.17;;;20.00;57.80;;;;;;5092957;28;20020;-73
2023/03/23 12:50:34;;;;;;;3.15;1.27;;;20.00;57.90;;;;;;5092536;28;20027;-73
2023/03/23 12:53:40;;;;;;;3.22;1.08;;;20.00;58.80;;;;;;5079045;28;20040;-74
2023/03/23 12:56:25;;;;;;;2.38;1.10;;;19.80;58.20;;;;;;5069761;28;20072;-73
2023/03/23 12:59:03;;;;;;;3.17;1.00;;;19.80;58.40;;;;;;5091666;28;20487;-73
2023/03/23 13:01:35;;;;;;;3.17;1.38;;;19.70;58.60;;;;;;5092528;28;20416;-73
2023/03/23 13:04:13;;;;;;;3.25;1.25;;;19.60;58.90;;;;;;5092278;28;20028;-73
2023/03/23 13:06:45;;;;;;;4.50;1.48;;;19.50;59.00;;;;;;5092569;28;20038;-73
2023/03/23 13:09:27;;;;;;;4.22;1.10;;;19.50;59.10;;;;;;5092810;28;20356;-73